Time;durP1;ratioP1;P1;durP2;ratioP2;P2;SDS_P1;SDS_P2;PMS_P1;PMS_P2;Temp;Humidity;BMP_temperature;BMP_pressure;BME280_temperature;BME280_humidity;BME280_pressure;Samples;Min_cycle;Max_cycle;Signal;HPM_P1;HPM_P2
2023/04/11 03:01:11;;;;;;;9.88;1.65;;;7.00;99.90;;;;;;5635018;23;20050;-85
2023/04/11 03:03:37;;;;;;;14.05;1.80;;;7.10;99.90;;;;;;4960012;28;20039;-85
2023/04/11 03:06:05;;;;;;;10.70;2.75;;;7.20;99.90;;;;;;4960114;28;20045;-85
2023/04/11 03:08:32;;;;;;;15.07;2.45;;;7.20;99.90;;;;;;4959597;28;20149;-83
2023/04/11 03:10:58;;;;;;;11.38;2.60;;;7.30;99.90;;;;;;4977347;28;20039;-84
2023/04/11 03:13:25;;;;;;;9.55;2.28;;;7.30;99.90;;;;;;4976562;28;20475;-83
2023/04/11 03:15:50;;;;;;;8.45;2.30;;;7.30;99.90;;;;;;4959239;28;20038;-84
2023/04/11 03:18:17;;;;;;;13.30;1.80;;;7.40;99.90;;;;;;4976785;28;20098;-84
2023/04/11 03:20:43;;;;;;;14.25;2.55;;;7.50;99.90;;;;;;4959150;28;20046;-84
2023/04/11 03:23:09;;;;;;;13.63;2.42;;;7.60;99.90;;;;;;4959087;28;20049;-81
2023/04/11 03:25:47;;;;;;;11.63;2.47;;;7.70;99.90;;;;;;4959342;28;20043;-84
2023/04/11 03:28:14;;;;;;;11.27;2.25;;;7.80;99.90;;;;;;4976036;28;20047;-84
2023/04/11 03:30:41;;;;;;;22.58;3.15;;;7.80;99.90;;;;;;4958593;28;20045;-84
2023/04/11 03:33:07;;;;;;;7.60;1.35;;;7.80;99.90;;;;;;4943204;28;20402;-85
2023/04/11 03:35:33;;;;;;;8.75;1.38;;;7.90;99.90;;;;;;4958553;28;20045;-84
2023/04/11 03:37:59;;;;;;;7.75;1.30;;;7.90;99.90;;;;;;4959596;28;20038;-84
2023/04/11 03:40:25;;;;;;;7.60;1.25;;;7.90;99.90;;;;;;4975837;28;20043;-85
2023/04/11 03:42:50;;;;;;;9.90;1.48;;;7.90;99.90;;;;;;4976051;28;20047;-83
2023/04/11 03:45:19;;;;;;;11.57;1.13;;;7.90;99.90;;;;;;4959713;28;20039;-83
2023/04/11 03:47:45;;;;;;;7.25;1.27;;;7.90;99.90;;;;;;4958653;28;20177;-84
2023/04/11 03:50:11;;;;;;;16.35;2.45;;;8.00;99.90;;;;;;4975957;28;20122;-83
2023/04/11 03:52:36;;;;;;;8.43;1.77;;;7.90;99.90;;;;;;4942398;28;20414;-83
2023/04/11 03:55:02;;;;;;;8.07;1.50;;;7.90;99.90;;;;;;4975888;28;20114;-84
2023/04/11 03:57:28;;;;;;;15.95;2.60;;;7.90;99.90;;;;;;4975771;28;20035;-83
2023/04/11 03:59:57;;;;;;;16.92;3.45;;;7.90;99.90;;;;;;4943637;28;20065;-84
2023/04/11 04:02:23;;;;;;;8.75;1.73;;;7.90;99.90;;;;;;4958174;28;20134;-83
2023/04/11 04:04:53;;;;;;;8.70;2.15;;;7.90;99.90;;;;;;4957959;28;20173;-83
2023/04/11 04:07:23;;;;;;;14.18;2.72;;;7.90;99.90;;;;;;4958403;28;20101;-83
2023/04/11 04:09:49;;;;;;;12.85;2.88;;;7.90;99.90;;;;;;4958081;28;20039;-83
2023/04/11 04:12:16;;;;;;;10.43;1.88;;;7.80;99.90;;;;;;4974816;28;20594;-84
2023/04/11 04:14:43;;;;;;;11.38;2.40;;;7.80;99.90;;;;;;4958833;28;20054;-84
2023/04/11 04:17:08;;;;;;;15.02;1.80;;;7.80;99.90;;;;;;4975447;28;20039;-83
2023/04/11 04:19:34;;;;;;;10.55;2.15;;;7.80;99.90;;;;;;4941875;28;20118;-82
2023/04/11 04:22:10;;;;;;;15.95;2.47;;;7.80;99.90;;;;;;4975235;28;20043;-84
2023/04/11 04:24:40;;;;;;;9.45;1.73;;;7.80;99.90;;;;;;4975664;28;20039;-83
2023/04/11 04:27:10;;;;;;;11.02;2.63;;;7.80;99.90;;;;;;4958338;28;20035;-85
2023/04/11 04:29:44;;;;;;;9.05;1.65;;;7.80;99.90;;;;;;4958165;28;20046;-84
2023/04/11 04:32:11;;;;;;;9.20;1.90;;;7.80;99.90;;;;;;4942158;28;20486;-85
2023/04/11 04:34:53;;;;;;;14.15;2.75;;;7.80;99.90;;;;;;4942471;28;20042;-84
2023/04/11 04:37:23;;;;;;;9.95;2.35;;;7.70;99.90;;;;;;4958232;28;20053;-85
2023/04/11 04:39:54;;;;;;;12.32;2.58;;;7.70;99.90;;;;;;4942449;28;20061;-84
2023/04/11 04:42:21;;;;;;;10.30;2.10;;;7.70;99.90;;;;;;4957632;28;20110;-83
2023/04/11 04:44:47;;;;;;;8.30;1.75;;;7.70;99.90;;;;;;4958229;28;20051;-84
2023/04/11 04:47:13;;;;;;;9.68;2.30;;;7.70;99.90;;;;;;4958080;28;20050;-84
2023/04/11 04:49:38;;;;;;;15.88;2.20;;;7.70;99.90;;;;;;4957599;28;20050;-85
2023/04/11 04:52:05;;;;;;;13.32;2.28;;;7.70;99.90;;;;;;4974715;28;20490;-84
2023/04/11 04:54:31;;;;;;;14.60;2.50;;;7.70;99.90;;;;;;4958146;28;20070;-85
2023/04/11 04:56:57;;;;;;;7.72;1.77;;;7.70;99.90;;;;;;4975279;28;20062;-82
2023/04/11 04:59:23;;;;;;;12.55;2.22;;;7.70;99.90;;;;;;4957833;28;20054;-83
2023/04/11 05:01:52;;;;;;;8.35;2.40;;;7.70;99.90;;;;;;4941373;28;20058;-85
2023/04/11 05:04:18;;;;;;;9.30;2.05;;;7.70;99.90;;;;;;4957902;28;20541;-84
2023/04/11 05:06:44;;;;;;;8.02;1.52;;;7.70;99.90;;;;;;4975618;28;20049;-84
2023/04/11 05:09:21;;;;;;;9.65;1.92;;;7.70;99.90;;;;;;4942084;28;20031;-84
2023/04/11 05:11:49;;;;;;;11.65;1.67;;;7.80;99.90;;;;;;4957930;28;20548;-85
2023/04/11 05:14:17;;;;;;;16.02;2.40;;;7.70;99.90;;;;;;4957813;28;20101;-84
2023/04/11 05:16:52;;;;;;;11.40;2.28;;;7.80;99.90;;;;;;4957874;28;20050;-83
2023/04/11 05:19:18;;;;;;;7.88;2.10;;;7.80;99.90;;;;;;4974859;28;20042;-84
2023/04/11 05:21:43;;;;;;;9.90;2.63;;;7.80;99.90;;;;;;4942095;28;20042;-84
2023/04/11 05:24:09;;;;;;;15.75;2.45;;;7.70;99.90;;;;;;4957012;28;20101;-84
2023/04/11 05:26:35;;;;;;;10.32;2.35;;;7.70;99.90;;;;;;4958528;28;20521;-84
2023/04/11 05:29:00;;;;;;;12.52;3.42;;;7.70;99.90;;;;;;4958753;28;20138;-83
2023/04/11 05:31:27;;;;;;;13.48;2.58;;;7.80;99.90;;;;;;4974541;28;20121;-84
2023/04/11 05:33:53;;;;;;;7.00;2.10;;;7.80;99.90;;;;;;4957254;28;20046;-82
2023/04/11 05:36:19;;;;;;;5.95;1.77;;;7.80;99.90;;;;;;4957707;28;20170;-85
2023/04/11 05:38:45;;;;;;;11.50;2.50;;;7.80;99.90;;;;;;4975032;28;20090;-84
2023/04/11 05:41:13;;;;;;;11.93;1.48;;;7.80;99.90;;;;;;4958001;28;20055;-84
2023/04/11 05:43:39;;;;;;;10.32;1.65;;;7.90;99.90;;;;;;4957469;28;20093;-84
2023/04/11 05:46:06;;;;;;;10.63;1.70;;;7.90;99.90;;;;;;4957155;28;20410;-84
2023/04/11 05:48:32;;;;;;;9.38;2.00;;;7.90;99.90;;;;;;4941682;28;20482;-85
2023/04/11 05:50:59;;;;;;;7.80;1.67;;;8.00;99.90;;;;;;4974811;28;20043;-84
2023/04/11 05:53:25;;;;;;;12.65;2.78;;;7.90;99.90;;;;;;4957233;28;20178;-85
2023/04/11 05:55:53;;;;;;;7.40;1.70;;;8.00;99.90;;;;;;4940973;28;20050;-85
2023/04/11 05:58:19;;;;;;;7.60;1.90;;;8.00;99.90;;;;;;4974240;28;20486;-84
2023/04/11 06:00:45;;;;;;;16.00;2.55;;;8.00;99.90;;;;;;4974419;28;20042;-84
2023/04/11 06:03:11;;;;;;;14.68;2.72;;;8.00;99.90;;;;;;4976929;28;20047;-84
2023/04/11 06:05:37;;;;;;;5.88;1.70;;;8.00;99.90;;;;;;4962103;28;20039;-82
2023/04/11 06:08:06;;;;;;;12.88;2.05;;;8.00;99.90;;;;;;4968800;28;20046;-79
2023/04/11 06:10:31;;;;;;;12.63;2.60;;;8.00;99.90;;;;;;4987476;23;20038;-84
2023/04/11 06:12:57;;;;;;;15.90;3.17;;;8.00;99.90;;;;;;4976385;28;20038;-85
2023/04/11 06:15:35;;;;;;;8.57;1.75;;;8.00;99.90;;;;;;4958527;28;20505;-84
2023/04/11 06:18:01;;;;;;;8.80;1.70;;;8.00;99.90;;;;;;4957618;28;20066;-85
2023/04/11 06:20:27;;;;;;;15.13;2.35;;;8.00;99.90;;;;;;4957448;28;20093;-84
2023/04/11 06:23:00;;;;;;;10.48;2.25;;;8.10;99.90;;;;;;4974466;28;20045;-85
2023/04/11 06:25:26;;;;;;;11.95;2.33;;;8.00;99.90;;;;;;4974402;28;20058;-85
2023/04/11 06:27:57;;;;;;;10.45;2.05;;;8.10;99.90;;;;;;4957337;28;20399;-86
2023/04/11 06:30:23;;;;;;;14.68;2.85;;;8.00;99.90;;;;;;4956990;28;20038;-84
2023/04/11 06:32:48;;;;;;;15.23;2.00;;;8.00;99.90;;;;;;4956838;28;20097;-85
2023/04/11 06:35:14;;;;;;;10.95;1.60;;;8.10;99.90;;;;;;4958547;28;20122;-85
2023/04/11 06:37:41;;;;;;;14.45;2.15;;;8.10;99.90;;;;;;4944803;28;20471;-82
2023/04/11 06:40:22;;;;;;;13.73;2.05;;;8.10;99.90;;;;;;4961830;28;20082;-85
2023/04/11 06:42:48;;;;;;;17.40;2.13;;;8.20;99.90;;;;;;4977457;28;20101;-85
2023/04/11 06:45:13;;;;;;;14.95;2.47;;;8.20;99.90;;;;;;4960472;28;20464;-85
2023/04/11 06:47:41;;;;;;;10.02;1.40;;;8.20;99.90;;;;;;4960512;28;20038;-85
2023/04/11 06:50:44;;;;;;;;;;;;;;;;;;;;;
2023/04/11 06:53:19;;;;;;;13.40;2.05;;;8.30;99.90;;;;;;4960087;28;20461;-85
2023/04/11 06:55:53;;;;;;;10.77;1.92;;;8.30;99.90;;;;;;4960400;28;20130;-84
2023/04/11 06:58:19;;;;;;;13.52;1.83;;;8.20;99.90;;;;;;4959894;28;20042;-85
2023/04/11 07:00:44;;;;;;;11.07;1.70;;;8.20;99.90;;;;;;4960331;28;20105;-86
2023/04/11 07:03:11;;;;;;;9.75;1.85;;;8.20;99.90;;;;;;4977140;28;20129;-83
2023/04/11 07:05:42;;;;;;;11.52;2.03;;;8.20;99.90;;;;;;4944959;28;20042;-83
2023/04/11 07:08:08;;;;;;;9.80;1.85;;;8.20;99.90;;;;;;4959789;28;20513;-85
2023/04/11 07:10:33;;;;;;;13.27;2.80;;;8.30;99.90;;;;;;4943956;28;20395;-85
2023/04/11 07:12:59;;;;;;;10.93;2.15;;;8.30;99.90;;;;;;4977356;28;20117;-84
2023/04/11 07:15:24;;;;;;;13.43;2.13;;;8.30;99.90;;;;;;4976885;28;20035;-83
2023/04/11 07:17:50;;;;;;;12.02;1.92;;;8.40;99.90;;;;;;4943566;28;20380;-83
2023/04/11 07:20:16;;;;;;;12.57;1.80;;;8.50;99.90;;;;;;4943495;28;20046;-83
2023/04/11 07:23:12;;;;;;;;;;;;;;;;;;;;;
2023/04/11 07:25:32;;;;;;;12.82;1.55;;;8.50;99.90;;;;;;4956941;28;20078;-85
2023/04/11 07:28:00;;;;;;;14.85;1.98;;;8.60;99.90;;;;;;4977120;28;20399;-87
2023/04/11 07:30:27;;;;;;;7.38;1.67;;;8.60;99.90;;;;;;4960203;28;20070;-84
2023/04/11 07:32:53;;;;;;;11.35;2.22;;;8.60;99.90;;;;;;4976816;28;20554;-85
2023/04/11 07:35:21;;;;;;;10.13;2.05;;;8.70;99.90;;;;;;4959568;28;20035;-83
2023/04/11 07:38:32;;;;;;;12.07;2.33;;;8.60;99.90;;;;;;4976516;28;20495;-84
2023/04/11 07:41:02;;;;;;;15.38;1.70;;;8.70;99.90;;;;;;4936305;28;20058;-84
2023/04/11 07:43:31;;;;;;;12.82;1.92;;;8.70;99.90;;;;;;4959216;28;20077;-82
2023/04/11 07:46:16;;;;;;;10.68;2.22;;;8.70;99.90;;;;;;4942725;28;20053;-84
2023/04/11 07:48:55;;;;;;;5.40;1.80;;;8.70;99.90;;;;;;4942549;28;20479;-85
2023/04/11 07:51:30;;;;;;;12.77;2.25;;;8.80;99.90;;;;;;4959724;28;20073;-84
2023/04/11 07:54:27;;;;;;;12.38;2.33;;;8.80;99.90;;;;;;4977086;28;20042;-84
2023/04/11 07:57:06;;;;;;;;;;;;;;;;;;;;;
2023/04/11 07:59:57;;;;;;;;;;;;;;;;;;;;;
2023/04/11 08:02:24;;;;;;;11.82;1.90;;;8.90;99.90;;;;;;4900166;29;20056;-83
2023/04/11 08:05:08;;;;;;;9.18;1.77;;;9.00;99.90;;;;;;4917065;29;20103;-83
2023/04/11 08:07:34;;;;;;;9.85;2.20;;;9.10;99.90;;;;;;4949614;28;20105;-84
2023/04/11 08:10:00;;;;;;;8.57;1.67;;;9.10;99.90;;;;;;4942385;28;20039;-83
2023/04/11 08:12:42;;;;;;;10.40;2.25;;;9.10;99.90;;;;;;4942323;28;20458;-83
2023/04/11 08:15:23;;;;;;;14.18;1.98;;;9.10;99.90;;;;;;4943041;28;20550;-83
2023/04/11 08:17:55;;;;;;;10.77;1.40;;;9.20;99.90;;;;;;4975705;28;20038;-82
2023/04/11 08:20:25;;;;;;;8.23;1.90;;;9.30;99.90;;;;;;4958914;28;20046;-83
2023/04/11 08:22:50;;;;;;;8.32;1.60;;;9.30;99.90;;;;;;4943174;28;20043;-84
2023/04/11 08:25:23;;;;;;;8.57;1.77;;;9.40;99.90;;;;;;4975245;28;20398;-82
2023/04/11 08:28:08;;;;;;;11.40;2.35;;;9.50;99.90;;;;;;4942514;28;20402;-83
2023/04/11 08:30:43;;;;;;;12.63;1.70;;;9.50;99.90;;;;;;4957637;28;20042;-83
2023/04/11 08:33:46;;;;;;;;;;;;;;;;;;;;;
2023/04/11 08:36:15;;;;;;;12.18;2.40;;;9.40;99.90;;;;;;4957583;28;20088;-83
2023/04/11 08:38:41;;;;;;;9.43;1.88;;;9.50;99.90;;;;;;4942195;28;20074;-82
2023/04/11 08:41:11;;;;;;;10.82;1.85;;;10.10;99.90;;;;;;4958638;28;20053;-81
2023/04/11 08:43:51;;;;;;;;;;;;;;;;;;;;;
2023/04/11 08:46:27;;;;;;;9.90;1.63;;;10.10;99.90;;;;;;4975156;28;20038;-82
2023/04/11 08:48:53;;;;;;;11.50;2.00;;;9.90;99.90;;;;;;4957622;28;20414;-82
2023/04/11 08:51:25;;;;;;;9.38;1.77;;;9.60;99.90;;;;;;4975106;28;20047;-83
2023/04/11 08:53:53;;;;;;;7.28;1.90;;;9.30;99.90;;;;;;4975307;28;20045;-81
2023/04/11 08:56:21;;;;;;;7.15;1.30;;;9.20;99.90;;;;;;4942856;28;20043;-83
2023/04/11 08:58:47;;;;;;;17.33;2.15;;;9.10;99.90;;;;;;4975186;28;20045;-82
2023/04/11 09:01:48;;;;;;;10.27;1.70;;;9.10;99.90;;;;;;4958178;28;20042;-83
2023/04/11 09:04:14;;;;;;;7.85;1.65;;;9.10;99.90;;;;;;4927649;28;20062;-82
2023/04/11 09:06:55;;;;;;;11.25;1.52;;;9.30;99.90;;;;;;4941521;28;20401;-82
2023/04/11 09:09:30;;;;;;;11.63;2.53;;;9.60;99.90;;;;;;4975183;28;20082;-82
2023/04/11 09:11:56;;;;;;;14.25;2.38;;;9.60;99.90;;;;;;4941435;28;20050;-82
2023/04/11 09:14:25;;;;;;;14.65;1.98;;;9.60;99.90;;;;;;4941719;28;20038;-82
2023/04/11 09:17:03;;;;;;;13.45;2.17;;;9.50;99.90;;;;;;4974908;28;20034;-81
2023/04/11 09:19:33;;;;;;;6.50;1.63;;;9.40;99.90;;;;;;4941181;28;20522;-81
2023/04/11 09:22:06;;;;;;;7.70;1.38;;;9.20;99.90;;;;;;4941007;28;20491;-81
2023/04/11 09:24:34;;;;;;;17.40;2.75;;;8.50;99.90;;;;;;4941434;28;20137;-81
2023/04/11 09:27:33;;;;;;;7.90;1.50;;;8.00;99.90;;;;;;4941285;28;20050;-81
2023/04/11 09:30:25;;;;;;;7.50;1.63;;;8.00;99.90;;;;;;4932395;28;20058;-83
2023/04/11 09:33:24;;;;;;;8.02;1.52;;;8.00;99.90;;;;;;4941586;28;20483;-83
2023/04/11 09:36:16;;;;;;;7.78;1.70;;;8.10;99.90;;;;;;4914870;29;20048;-82
2023/04/11 09:38:58;;;;;;;7.60;1.58;;;8.20;99.90;;;;;;4884566;29;20055;-84
2023/04/11 09:45:26;;;;;;;12.50;1.67;;;8.50;99.90;;;;;;4900227;29;20175;-83
2023/04/11 09:48:29;;;;;;;9.95;2.30;;;8.80;99.90;;;;;;4884981;29;20230;-81
2023/04/11 09:53:33;;;;;;;14.27;1.90;;;9.70;99.90;;;;;;4208264;26;20082;-82
2023/04/11 09:56:05;;;;;;;12.00;2.03;;;9.80;99.90;;;;;;4939032;29;20120;-82
2023/04/11 09:58:35;;;;;;;11.88;1.67;;;9.40;99.90;;;;;;4923366;29;20041;-82
2023/04/11 10:03:54;;;;;;;;;;;;;;;;;;;;;
2023/04/11 10:07:09;;;;;;;15.27;1.75;;;8.80;99.90;;;;;;4957543;28;20043;-82
2023/04/11 10:10:45;;;;;;;;;;;;;;;;;;;;;
2023/04/11 10:13:51;;;;;;;11.77;2.20;;;8.70;99.90;;;;;;4902793;29;20076;-83
2023/04/11 10:20:30;;;;;;;9.20;2.22;;;9.30;99.90;;;;;;4848503;29;20204;-82
2023/04/11 10:23:30;;;;;;;;;;;;;;;;;;;;;
2023/04/11 10:26:52;;;;;;;11.13;1.92;;;9.50;99.90;;;;;;4902254;29;20056;-83
2023/04/11 10:37:48;;;;;;;11.10;1.88;;;9.90;99.90;;;;;;4976640;28;20054;-80
2023/04/11 10:40:19;;;;;;;11.93;1.73;;;9.50;99.90;;;;;;4945289;28;20043;-81
2023/04/11 10:42:46;;;;;;;22.92;2.08;;;9.10;99.90;;;;;;4961203;28;20047;-82
2023/04/11 10:45:29;;;;;;;9.30;1.85;;;8.80;99.90;;;;;;4944980;28;20050;-81
2023/04/11 10:56:20;;;;;;;11.55;1.90;;;9.10;99.90;;;;;;4995710;28;20490;-82
2023/04/11 10:58:57;;;;;;;10.55;1.13;;;9.20;99.90;;;;;;4980167;28;20061;-80
2023/04/11 11:01:38;;;;;;;7.68;1.00;;;9.20;99.90;;;;;;5098777;23;20038;-82
2023/04/11 11:08:32;;;;;;;13.20;1.88;;;8.70;99.90;;;;;;4977902;28;20081;-82
2023/04/11 11:15:32;;;;;;;;;;;;;;;;;;;;;
2023/04/11 11:22:11;;;;;;;17.17;2.53;;;9.30;99.90;;;;;;4871171;29;20060;-79
2023/04/11 11:32:21;;;;;;;7.18;2.17;;;9.50;99.90;;;;;;4829071;29;20064;-82
2023/04/11 11:39:33;;;;;;;12.82;2.42;;;9.50;99.90;;;;;;4753112;30;20536;-82
2023/04/11 11:43:04;;;;;;;;;;;;;;;;;;;;;
2023/04/11 11:46:16;;;;;;;;;;;9.60;99.90;;;;;;4735282;30;20512;-84
2023/04/11 11:58:45;;;;;;;13.27;1.88;;;9.70;99.90;;;;;;5303197;23;20445;-83
2023/04/11 12:02:10;;;;;;;11.38;1.58;;;9.70;99.90;;;;;;5036886;23;20043;-83
2023/04/11 12:04:46;;;;;;;;;;;;;;;;;;;;;
2023/04/11 12:07:32;;;;;;;17.40;2.47;;;9.60;99.90;;;;;;4973427;28;20538;-81
2023/04/11 12:16:04;;;;;;;15.98;2.15;;;9.40;99.90;;;;;;4993344;28;20050;-82
2023/04/11 12:19:32;;;;;;;12.20;2.28;;;9.30;99.90;;;;;;4915408;29;20139;-81
2023/04/11 12:25:57;;;;;;;11.13;1.77;;;9.60;99.90;;;;;;4859668;29;20109;-84
2023/04/11 12:29:06;;;;;;;10.77;1.55;;;9.80;99.90;;;;;;4859529;29;20057;-81
2023/04/11 12:32:15;;;;;;;;;;;;;;;;;;;;;
2023/04/11 12:35:56;;;;;;;8.15;1.50;;;10.20;99.90;;;;;;4974058;28;20043;-81
2023/04/11 12:38:22;;;;;;;5.05;1.40;;;10.50;99.90;;;;;;4957679;28;20049;-82
2023/04/11 12:40:54;;;;;;;4.50;0.98;;;10.90;99.90;;;;;;4975086;28;20043;-81
2023/04/11 12:44:01;;;;;;;6.85;1.60;;;11.30;99.90;;;;;;4957954;28;20047;-83
2023/04/11 12:46:54;;;;;;;10.80;1.50;;;11.70;99.90;;;;;;4948846;28;20062;-82
2023/04/11 12:49:20;;;;;;;8.90;2.08;;;11.90;99.90;;;;;;4957427;28;20133;-82
2023/04/11 12:51:47;;;;;;;9.32;1.73;;;12.10;99.90;;;;;;4974760;28;20459;-82
2023/04/11 12:54:12;;;;;;;10.25;1.75;;;12.30;99.90;;;;;;4957516;28;20129;-82
2023/04/11 12:56:52;;;;;;;6.95;1.48;;;12.40;99.90;;;;;;4975397;28;20126;-81
2023/04/11 12:59:18;;;;;;;6.70;1.40;;;12.20;99.90;;;;;;4973506;28;20054;-82
2023/04/11 13:01:45;;;;;;;7.30;1.35;;;12.30;99.90;;;;;;4973838;28;20031;-82
2023/04/11 13:04:11;;;;;;;15.55;2.72;;;12.40;99.90;;;;;;4974721;28;20050;-81
2023/04/11 13:06:37;;;;;;;10.00;1.60;;;12.50;99.90;;;;;;4989840;28;20454;-81
2023/04/11 13:09:04;;;;;;;5.82;1.30;;;12.80;99.90;;;;;;4973780;28;20086;-81
2023/04/11 13:11:30;;;;;;;6.03;1.33;;;12.60;99.90;;;;;;4973884;28;20491;-81
2023/04/11 13:13:56;;;;;;;8.75;1.50;;;12.80;99.90;;;;;;4990257;28;20043;-81
2023/04/11 13:16:22;;;;;;;12.60;1.27;;;12.90;99.90;;;;;;4973491;28;20093;-81
2023/04/11 13:18:48;;;;;;;8.35;1.85;;;12.50;99.90;;;;;;4974018;28;20046;-81
2023/04/11 13:21:14;;;;;;;6.68;1.77;;;12.40;99.90;;;;;;4974702;28;20046;-81
2023/04/11 13:23:40;;;;;;;11.52;1.70;;;12.50;99.90;;;;;;4973713;28;20454;-80
2023/04/11 13:26:06;;;;;;;8.73;1.45;;;12.60;99.90;;;;;;4973068;28;20050;-81
2023/04/11 13:28:33;;;;;;;7.65;1.30;;;12.50;99.90;;;;;;4973627;28;20121;-80
2023/04/11 13:30:59;;;;;;;8.43;1.92;;;12.50;99.90;;;;;;4974875;28;20042;-80
2023/04/11 13:33:26;;;;;;;7.90;1.98;;;12.40;99.90;;;;;;4974286;28;20042;-79
2023/04/11 13:35:51;;;;;;;11.57;1.90;;;12.20;99.90;;;;;;4973234;28;20118;-79
2023/04/11 13:38:17;;;;;;;8.90;1.13;;;12.30;99.90;;;;;;4989645;28;20121;-81
2023/04/11 13:40:43;;;;;;;5.03;0.98;;;12.20;99.90;;;;;;4973493;28;20460;-80
2023/04/11 13:43:09;;;;;;;10.02;1.70;;;12.00;99.90;;;;;;4973037;28;20082;-79
2023/04/11 13:45:35;;;;;;;10.93;1.58;;;11.90;99.90;;;;;;4959615;28;20082;-80
2023/04/11 13:48:02;;;;;;;6.80;1.20;;;12.00;99.90;;;;;;4993715;28;20082;-80
2023/04/11 13:50:27;;;;;;;7.43;1.20;;;12.20;99.90;;;;;;4976938;28;20054;-81
2023/04/11 13:52:53;;;;;;;6.57;1.13;;;12.20;99.90;;;;;;4978620;28;20039;-80
2023/04/11 13:55:19;;;;;;;7.95;1.33;;;12.50;99.90;;;;;;4976828;28;20106;-81
2023/04/11 13:57:45;;;;;;;6.22;1.00;;;12.80;99.90;;;;;;4977096;28;20038;-79
2023/04/11 14:00:11;;;;;;;8.30;1.70;;;12.70;99.90;;;;;;4978290;28;20129;-81
2023/04/11 14:02:38;;;;;;;7.55;1.73;;;12.80;99.90;;;;;;4992916;28;20108;-80
2023/04/11 14:05:04;;;;;;;8.90;1.73;;;12.50;99.90;;;;;;4960359;28;20101;-80
2023/04/11 14:07:30;;;;;;;8.57;1.20;;;12.30;99.90;;;;;;4976727;28;20061;-83
2023/04/11 14:09:56;;;;;;;7.80;1.58;;;12.40;99.90;;;;;;4978258;28;20058;-80
2023/04/11 14:12:22;;;;;;;10.23;1.38;;;12.50;99.90;;;;;;4993423;28;20038;-81
2023/04/11 14:14:48;;;;;;;10.05;1.58;;;12.50;99.90;;;;;;4977173;28;20046;-80
2023/04/11 14:17:14;;;;;;;7.97;1.50;;;12.60;99.90;;;;;;4977213;28;20035;-81
2023/04/11 14:19:40;;;;;;;9.15;1.35;;;12.80;99.90;;;;;;4977237;28;20049;-80
2023/04/11 14:22:05;;;;;;;10.27;1.75;;;12.80;99.90;;;;;;4978126;28;20057;-79
2023/04/11 14:24:31;;;;;;;8.32;1.50;;;12.70;99.90;;;;;;4976634;28;20077;-79
2023/04/11 14:26:57;;;;;;;7.35;1.40;;;12.80;99.90;;;;;;4992902;28;20074;-81
2023/04/11 14:29:23;;;;;;;8.30;1.40;;;12.70;99.90;;;;;;4976434;28;20454;-80
2023/04/11 14:31:49;;;;;;;8.73;1.45;;;12.70;99.90;;;;;;4976950;28;20442;-79
2023/04/11 14:34:17;;;;;;;5.15;0.95;;;12.80;99.90;;;;;;4976524;28;20038;-80
2023/04/11 14:36:43;;;;;;;8.43;1.45;;;12.90;99.90;;;;;;4992760;28;20518;-80
2023/04/11 14:39:08;;;;;;;8.40;1.67;;;12.60;99.90;;;;;;4976464;28;20043;-81
2023/04/11 14:41:34;;;;;;;5.00;1.40;;;12.50;99.90;;;;;;4978308;28;20108;-79
2023/04/11 14:44:00;;;;;;;9.50;1.70;;;12.40;99.90;;;;;;4976264;28;20514;-79
2023/04/11 14:46:26;;;;;;;5.97;1.20;;;12.60;99.90;;;;;;4992616;28;20050;-79
2023/04/11 14:48:52;;;;;;;7.13;1.17;;;12.70;99.90;;;;;;4993090;28;20065;-79
2023/04/11 14:51:17;;;;;;;8.07;2.20;;;12.80;99.90;;;;;;4978085;28;20098;-78
2023/04/11 14:53:43;;;;;;;8.18;1.50;;;12.70;99.50;;;;;;4976459;28;20039;-80
2023/04/11 14:56:09;;;;;;;8.93;1.42;;;12.70;99.90;;;;;;4960791;28;20046;-81
2023/04/11 14:58:35;;;;;;;7.93;1.88;;;12.70;99.90;;;;;;4976662;28;20384;-78
2023/04/11 15:01:00;;;;;;;7.32;1.20;;;12.80;99.90;;;;;;4976729;28;20050;-81
2023/04/11 15:03:26;;;;;;;6.50;1.38;;;12.90;99.90;;;;;;4976739;28;20060;-79
2023/04/11 15:05:52;;;;;;;7.55;1.60;;;13.00;99.90;;;;;;4976547;28;20144;-79
2023/04/11 15:08:17;;;;;;;8.45;1.55;;;13.20;99.90;;;;;;4977638;28;20093;-79
2023/04/11 15:10:43;;;;;;;9.73;1.48;;;13.20;99.90;;;;;;4975651;28;20127;-78
2023/04/11 15:13:10;;;;;;;5.82;2.05;;;13.20;99.90;;;;;;4976362;28;20038;-78
2023/04/11 15:15:36;;;;;;;5.45;1.50;;;13.10;99.70;;;;;;4976517;28;20079;-80
2023/04/11 15:18:29;;;;;;;8.18;2.05;;;13.30;99.80;;;;;;4978052;28;20398;-79
2023/04/11 15:20:56;;;;;;;6.82;1.55;;;13.30;99.80;;;;;;4976653;28;20042;-80
2023/04/11 15:23:22;;;;;;;7.45;1.63;;;13.10;99.10;;;;;;4977695;28;20094;-79
2023/04/11 15:25:57;;;;;;;11.25;1.90;;;13.10;99.20;;;;;;4976243;28;20129;-80
2023/04/11 15:28:23;;;;;;;7.40;2.00;;;12.90;99.90;;;;;;4977431;28;20043;-79
2023/04/11 15:30:51;;;;;;;9.73;2.33;;;13.10;99.90;;;;;;4975936;28;20462;-80
2023/04/11 15:33:19;;;;;;;8.07;2.35;;;13.20;99.90;;;;;;4977285;28;20035;-81
2023/04/11 15:35:45;;;;;;;11.98;2.88;;;13.10;99.90;;;;;;4992235;28;20106;-79
2023/04/11 15:38:13;;;;;;;6.97;2.08;;;13.20;99.60;;;;;;4975965;28;20046;-80
2023/04/11 15:40:39;;;;;;;7.43;2.20;;;13.30;98.90;;;;;;4992078;28;20057;-79
2023/04/11 15:43:05;;;;;;;6.70;1.38;;;13.30;98.70;;;;;;4992389;28;20054;-80
2023/04/11 15:45:34;;;;;;;6.53;1.40;;;13.30;98.40;;;;;;4992408;28;20062;-80
2023/04/11 15:47:59;;;;;;;9.00;1.58;;;13.30;98.40;;;;;;4975386;28;20134;-79
2023/04/11 15:50:27;;;;;;;9.82;1.60;;;13.40;99.10;;;;;;4977161;28;20444;-80
2023/04/11 15:52:53;;;;;;;9.32;2.10;;;13.50;97.70;;;;;;4977230;28;20043;-79
2023/04/11 15:55:20;;;;;;;6.32;1.23;;;13.50;97.60;;;;;;4975592;28;20050;-81
2023/04/11 15:57:47;;;;;;;4.63;1.05;;;13.20;93.90;;;;;;4992369;28;20376;-77
2023/04/11 16:00:13;;;;;;;7.47;1.30;;;13.20;94.50;;;;;;4977311;28;20133;-80
2023/04/11 16:02:43;;;;;;;6.18;1.60;;;13.10;93.80;;;;;;4976425;28;20062;-78
2023/04/11 16:05:08;;;;;;;5.20;0.98;;;13.00;93.30;;;;;;4991574;28;20046;-79
2023/04/11 16:07:34;;;;;;;5.88;1.63;;;13.00;94.60;;;;;;4975086;28;20063;-79
2023/04/11 16:10:00;;;;;;;6.82;1.20;;;13.00;93.60;;;;;;4975349;28;20124;-78
2023/04/11 16:12:25;;;;;;;5.82;1.30;;;13.10;94.00;;;;;;4975471;28;20042;-80
2023/04/11 16:14:51;;;;;;;7.57;2.30;;;13.20;94.80;;;;;;4974911;28;20077;-78
2023/04/11 16:17:19;;;;;;;6.80;1.33;;;13.30;94.10;;;;;;4975109;28;20126;-79
2023/04/11 16:19:46;;;;;;;9.75;1.55;;;13.20;94.60;;;;;;4976210;28;20038;-78
2023/04/11 16:22:12;;;;;;;4.03;1.20;;;13.10;93.50;;;;;;4974760;28;20046;-78
2023/04/11 16:24:37;;;;;;;8.25;1.40;;;13.10;93.50;;;;;;4959114;28;20046;-78
2023/04/11 16:27:03;;;;;;;9.48;1.38;;;13.00;92.80;;;;;;4975296;28;20130;-79
2023/04/11 16:29:29;;;;;;;7.22;1.42;;;12.90;94.10;;;;;;4974854;28;20042;-80
2023/04/11 16:31:54;;;;;;;15.30;5.53;;;12.80;94.50;;;;;;4974597;28;20470;-79
2023/04/11 16:34:20;;;;;;;11.65;4.47;;;12.90;95.80;;;;;;4975912;28;20521;-79
2023/04/11 16:36:46;;;;;;;13.68;4.25;;;12.90;96.90;;;;;;4974696;28;20046;-80
2023/04/11 16:39:12;;;;;;;25.00;6.82;;;13.00;96.90;;;;;;4958366;28;20047;-79
2023/04/11 16:41:38;;;;;;;18.63;6.05;;;13.10;96.80;;;;;;4990555;28;20121;-81
2023/04/11 16:44:10;;;;;;;17.00;5.18;;;13.20;97.10;;;;;;4974329;28;20042;-81
2023/04/11 16:46:44;;;;;;;12.48;3.92;;;13.50;96.80;;;;;;4991232;28;20050;-81
2023/04/11 16:49:10;;;;;;;10.60;2.03;;;13.70;97.50;;;;;;4976147;28;20078;-79
2023/04/11 16:51:36;;;;;;;10.88;1.83;;;13.90;97.20;;;;;;4973910;28;20280;-79
2023/04/11 16:54:05;;;;;;;10.38;1.55;;;14.00;97.40;;;;;;4958160;28;20039;-78
2023/04/11 16:56:31;;;;;;;8.15;1.70;;;14.10;97.40;;;;;;4974232;28;20129;-78
2023/04/11 16:58:57;;;;;;;9.77;1.63;;;14.10;96.10;;;;;;4990506;28;20505;-81
2023/04/11 17:01:23;;;;;;;11.27;2.40;;;13.70;95.90;;;;;;4974303;28;20046;-81
2023/04/11 17:03:50;;;;;;;10.38;2.83;;;13.60;96.90;;;;;;4974080;28;20375;-81
2023/04/11 17:06:16;;;;;;;8.57;2.83;;;13.50;97.50;;;;;;4975042;28;20505;-80
2023/04/11 17:08:43;;;;;;;12.02;4.40;;;13.50;97.70;;;;;;4991033;28;20114;-81
2023/04/11 17:11:10;;;;;;;9.38;2.50;;;13.40;98.10;;;;;;4978142;28;20107;-77
2023/04/11 17:13:39;;;;;;;8.02;1.70;;;13.30;98.50;;;;;;4984234;28;20034;-77
2023/04/11 17:16:06;;;;;;;9.25;1.55;;;13.40;99.00;;;;;;4996918;28;20085;-81
2023/04/11 17:18:33;;;;;;;9.80;2.10;;;13.40;99.60;;;;;;4975732;28;20042;-81
2023/04/11 17:20:59;;;;;;;10.10;1.55;;;13.20;98.60;;;;;;4989896;28;20049;-79
2023/04/11 17:23:25;;;;;;;7.82;1.23;;;13.20;99.80;;;;;;4975900;28;20173;-79
2023/04/11 17:25:52;;;;;;;9.52;2.00;;;13.20;99.40;;;;;;4990653;28;20051;-82
2023/04/11 17:28:19;;;;;;;7.70;1.33;;;13.00;99.00;;;;;;4990369;28;20046;-79
2023/04/11 17:30:47;;;;;;;7.00;1.50;;;12.60;99.70;;;;;;4990209;28;20047;-80
2023/04/11 17:33:14;;;;;;;13.07;1.40;;;12.30;99.90;;;;;;4976267;28;20438;-80
2023/04/11 17:35:40;;;;;;;7.50;1.60;;;12.10;99.90;;;;;;4973640;28;20049;-79
2023/04/11 17:38:06;;;;;;;8.65;1.42;;;11.90;99.90;;;;;;4975636;28;20050;-81
2023/04/11 17:40:32;;;;;;;8.38;1.70;;;11.80;99.90;;;;;;4990249;28;20052;-80